Latest Weather Observations for Blackwater Airport

IDQ60801

Issued at 9:31 pm EST Saturday 4 July 2015 (issued every 30 minutes, with the page automatically refreshed every 10 minutes)

About weather observations | Map of weather stations | Latest weather observations for QLD | Other Formats
Station Details ID: 035134 Name: BLACKWATER AIRPORT Lat: -23.60 Lon: 148.81 Height: 192.95 m
Data from the previous 72 hours. | See also: Recent months at Blackwater Airport
Date/Time
EST
Temp
°C
App
Temp
°C
Dew
Point
Rel
Hum
%
Delta-T
°C
Wind Press
QNH
hPa
Press
MSL
hPa
Rain
since 9 am
mm
Dir
 
Spd
km/h
Gust
km/h
Spd
kts
Gust
kts
04/09:30pm 17.3 15.2 9.7 61 4.0 E 11 13 6 7 1021.4 1021.1 0.0
04/09:00pm 17.3 14.6 9.0 58 4.3 ENE 13 15 7 8 1021.3 1021.0 0.0
04/08:30pm 17.1 14.2 8.3 56 4.5 ENE 13 15 7 8 1021.3 1021.0 0.0
04/08:00pm 18.5 16.8 8.5 52 5.2 ESE 7 9 4 5 1021.2 1020.9 0.0
04/07:30pm 18.7 16.7 8.7 52 5.2 ESE 9 11 5 6 1021.1 1020.8 0.0
04/07:00pm 18.5 16.4 8.2 51 5.3 E 9 11 5 6 1020.8 1020.5 0.0
04/06:30pm 18.4 16.3 8.1 51 5.3 E 9 11 5 6 1020.3 1020.0 0.0
04/06:00pm 19.0 16.4 7.8 48 5.8 E 11 13 6 7 1019.9 1019.6 0.0
04/05:30pm 20.7 17.6 8.7 46 6.4 E 15 19 8 10 1019.6 1019.3 0.0
04/05:00pm 21.6 18.3 8.1 42 7.1 ENE 15 20 8 11 1019.3 1019.1 0.0
04/04:30pm 21.2 18.0 8.5 44 6.7 NE 15 22 8 12 1019.1 1018.9 0.0
04/04:00pm 22.5 19.9 7.9 39 7.7 ENE 11 17 6 9 1018.9 1018.7 0.0
04/03:30pm 23.3 19.3 8.2 38 8.1 NE 19 39 10 21 1018.9 1018.7 0.0
04/03:00pm 22.9 18.6 7.0 36 8.3 ENE 19 28 10 15 1019.1 1018.9 0.0
04/02:30pm 23.2 19.7 7.3 36 8.3 ENE 15 26 8 14 1019.1 1018.9 0.0
04/02:00pm 23.7 20.7 7.8 36 8.4 ENE 13 22 7 12 1019.3 1019.1 0.0
04/01:30pm 22.4 19.2 7.0 37 8.0 NE 13 24 7 13 1019.4 1019.2 0.0
04/01:00pm 22.3 19.3 7.7 39 7.7 ENE 13 22 7 12 1019.9 1019.6 0.0
04/12:30pm 22.8 19.8 7.8 38 7.9 ENE 13 20 7 11 1020.4 1020.1 0.0
04/12:00pm 21.6 18.4 6.7 38 7.6 ENE 13 24 7 13 1020.9 1020.6 0.0
04/11:30am 21.2 17.5 4.7 34 8.1 NE 13 19 7 10 1021.6 1021.3 0.0
04/11:00am 21.4 18.2 5.3 35 8.0 NE 11 17 6 9 1022.0 1021.7 0.0
04/10:30am 19.5 16.5 4.0 36 7.5 SSE 9 13 5 7 1022.4 1022.2 0.0
04/10:00am 18.5 15.8 3.9 38 6.9 ENE 7 13 4 7 1022.6 1022.4 0.0
04/09:30am 17.9 15.3 4.1 40 6.6 SSE 7 11 4 6 1022.8 1022.6 0.0
04/09:00am 16.2 13.2 3.9 44 5.7 SE 9 11 5 6 1022.8 1022.6 0.0
04/08:30am 15.0 11.9 3.8 47 5.2 SE 9 13 5 7 1022.7 1022.5 0.0
04/08:00am 13.4 10.1 4.8 56 4.0 S 11 15 6 8 1022.4 1022.2 0.0
04/07:30am 8.4 4.0 2.8 68 2.4 SSW 15 17 8 9 1022.1 1021.8 0.0
04/07:00am 5.9 0.9 1.4 73 1.8 SSW 17 19 9 10 1022.1 1021.8 0.0
04/06:30am 7.3 3.1 1.8 68 2.3 S 13 17 7 9 1022.0 1021.7 0.0
04/06:00am 6.7 1.7 1.2 68 2.2 S 17 19 9 10 1021.9 1021.6 0.0
04/05:30am 6.8 1.3 0.9 66 2.4 S 19 20 10 11 1021.8 1021.5 0.0
04/05:00am 7.7 2.7 1.3 64 2.6 S 17 20 9 11 1021.7 1021.4 0.0
04/04:30am 6.5 1.4 1.0 68 2.2 S 17 20 9 11 1021.7 1021.4 0.0
04/04:00am 6.7 2.0 1.2 68 2.2 S 15 17 8 9 1021.7 1021.4 0.0
04/03:30am 4.4 -0.7 0.6 76 1.5 SSW 17 20 9 11 1021.8 1021.5 0.0
04/03:00am 4.1 -1.1 0.1 75 1.5 SSW 17 17 9 9 1021.8 1021.5 0.0
04/02:30am 4.9 0.5 0.5 73 1.7 SSW 13 15 7 8 1021.8 1021.5 0.0
04/02:00am 4.5 0.8 -0.1 72 1.7 SSW 9 9 5 5 1022.0 1021.7 0.0
04/01:30am 5.2 3.3 0.4 71 1.9 CALM 0 0 0 0 1022.4 1022.2 0.0
04/01:00am 5.7 3.8 0.7 70 2.0 CALM 0 0 0 0 1022.6 1022.4 0.0
04/12:30am 6.2 3.8 -0.5 62 2.6 ENE 2 7 1 4 1022.4 1022.2 0.0
04/12:00am 9.5 5.6 1.2 56 3.4 SSE 11 13 6 7 1022.4 1022.2 0.0
 
Date/Time
EST
Temp
°C
App
Temp
°C
Dew
Point
Rel
Hum
%
Delta-T
°C
Wind Press
QNH
hPa
Press
MSL
hPa
Rain
since 9 am
mm
Dir
 
Spd
km/h
Gust
km/h
Spd
kts
Gust
kts
03/11:30pm 11.1 6.5 1.6 52 4.0 SSE 15 17 8 9 1022.5 1022.3 0.0
03/11:00pm 10.4 5.8 1.8 55 3.6 SSE 15 17 8 9 1022.6 1022.4 0.0
03/10:30pm 10.9 6.0 2.0 54 3.8 SSE 17 19 9 10 1022.7 1022.5 0.0
03/10:00pm 10.7 5.8 2.0 55 3.7 SSE 17 19 9 10 1022.9 1022.7 0.0
03/09:30pm 9.4 5.1 1.1 56 3.4 SSE 13 15 7 8 1022.7 1022.5 0.0
03/09:00pm 10.5 5.9 1.6 54 3.8 SSE 15 19 8 10 1022.7 1022.5 0.0
03/08:30pm 11.8 7.9 1.4 49 4.4 SE 11 19 6 10 1022.6 1022.4 0.0
03/08:00pm 12.8 8.2 1.8 47 4.8 SSE 15 22 8 12 1022.2 1021.9 0.0
03/07:30pm 12.8 9.3 1.5 46 4.9 SE 9 13 5 7 1021.9 1021.6 0.0
03/07:00pm 13.1 9.9 0.8 43 5.2 SE 7 9 4 5 1021.7 1021.4 0.0
03/06:30pm 15.6 11.7 1.3 38 6.3 SE 11 19 6 10 1021.3 1021.0 0.0
03/06:00pm 16.0 12.8 1.0 36 6.6 ESE 7 17 4 9 1020.9 1020.6 0.0
03/05:30pm 17.1 13.1 0.3 32 7.4 SE 11 17 6 9 1020.5 1020.2 0.0
03/05:00pm 19.2 14.8 0.3 28 8.4 SSE 13 17 7 9 1020.0 1019.7 0.0
03/04:30pm 20.3 16.6 0.2 26 9.0 SSE 9 13 5 7 1019.6 1019.3 0.0
03/04:00pm 20.5 16.6 0.9 27 8.9 SSE 11 22 6 12 1019.3 1019.1 0.0
03/03:30pm 20.3 16.0 1.2 28 8.7 SSE 13 22 7 12 1019.1 1018.9 0.0
03/03:00pm 20.0 15.2 0.5 27 8.8 SSE 15 30 8 16 1019.2 1019.0 0.0
03/02:30pm 20.6 16.2 0.4 26 9.1 SE 13 20 7 11 1019.3 1019.1 0.0
03/02:00pm 19.9 14.7 -0.1 26 8.9 SSE 17 24 9 13 1019.7 1019.4 0.0
03/01:30pm 19.5 14.4 1.0 29 8.4 SSW 17 24 9 13 1020.0 1019.7 0.0
03/01:00pm 18.2 13.4 0.4 30 7.9 S 15 20 8 11 1020.7 1020.4 0.0
03/12:30pm 18.5 14.3 1.5 32 7.7 SW 13 20 7 11 1021.3 1021.0 0.0
03/12:00pm 17.6 12.9 1.2 33 7.3 S 15 22 8 12 1021.8 1021.5 0.0
03/11:30am 17.3 12.7 1.3 34 7.2 SSE 15 24 8 13 1022.2 1021.9 0.0
03/11:00am 16.4 11.0 1.3 36 6.7 SSE 19 32 10 17 1022.5 1022.3 0.0
03/10:30am 15.5 9.9 1.3 38 6.3 S 20 30 11 16 1022.9 1022.7 0.0
03/10:00am 14.9 8.7 2.4 43 5.6 S 24 32 13 17 1023.2 1023.0 0.0
03/09:30am 14.2 8.4 2.1 44 5.4 SSE 22 30 12 16 1023.4 1023.2 0.0
03/09:00am 12.8 6.3 2.4 49 4.6 SSE 26 35 14 19 1023.5 1023.3 0.0
03/08:30am 11.4 4.9 2.4 54 3.9 SSE 26 33 14 18 1023.3 1023.1 0.0
03/08:00am 10.7 5.0 3.0 59 3.4 S 22 32 12 17 1023.1 1022.9 0.0
03/07:30am 9.6 4.6 3.4 65 2.7 S 19 28 10 15 1022.7 1022.5 0.0
03/07:00am 8.9 3.3 3.7 70 2.3 SSE 22 30 12 16 1022.4 1022.2 0.0
03/06:30am 8.7 3.6 4.1 73 2.0 SSE 20 28 11 15 1022.2 1021.9 0.0
03/06:00am 9.3 3.6 4.7 73 2.1 S 24 35 13 19 1021.9 1021.6 0.0
03/05:30am 9.1 3.7 4.5 73 2.1 S 22 33 12 18 1021.4 1021.1 0.0
03/05:00am 9.3 4.9 4.7 73 2.1 S 17 24 9 13 1021.1 1020.8 0.0
03/04:30am 10.0 5.3 5.0 71 2.3 SSE 19 26 10 14 1020.9 1020.6 0.0
03/04:00am 10.4 5.2 5.4 71 2.3 SSE 22 32 12 17 1020.8 1020.5 0.0
03/03:30am 11.0 4.6 5.3 68 2.6 SSE 28 37 15 20 1020.8 1020.5 0.0
03/03:00am 11.1 6.4 5.2 67 2.7 SSE 19 26 10 14 1021.0 1020.7 0.0
03/02:30am 11.4 6.7 5.3 66 2.8 SSE 19 26 10 14 1021.2 1020.9 0.0
03/02:00am 12.0 7.2 5.4 64 3.1 S 20 30 11 16 1021.5 1021.2 0.0
03/01:30am 12.3 7.1 5.5 63 3.2 SSE 22 28 12 15 1021.7 1021.4 0.0
03/01:00am 13.0 6.6 5.4 60 3.6 SSE 28 35 15 19 1022.0 1021.7 0.0
03/12:30am 13.8 7.5 5.7 58 3.9 SSE 28 37 15 20 1021.8 1021.5 0.0
03/12:00am 13.9 8.7 5.5 57 4.0 SSE 22 30 12 16 1021.9 1021.6 0.0
 
Date/Time
EST
Temp
°C
App
Temp
°C
Dew
Point
Rel
Hum
%
Delta-T
°C
Wind Press
QNH
hPa
Press
MSL
hPa
Rain
since 9 am
mm
Dir
 
Spd
km/h
Gust
km/h
Spd
kts
Gust
kts
02/11:30pm 14.8 9.2 5.6 54 4.4 SSE 24 35 13 19 1022.0 1021.7 0.0
02/11:00pm 15.1 10.3 5.6 53 4.6 SSE 20 28 11 15 1022.2 1021.9 0.0
02/10:30pm 15.0 10.7 5.2 52 4.7 SSE 17 22 9 12 1022.3 1022.0 0.0
02/10:00pm 14.5 10.7 5.6 55 4.2 SSE 15 20 8 11 1022.1 1021.8 0.0
02/09:30pm 14.2 10.6 4.8 53 4.4 S 13 17 7 9 1022.1 1021.8 0.0
02/09:00pm 15.0 10.6 5.0 51 4.7 SSE 17 20 9 11 1021.9 1021.6 0.0
02/08:30pm 14.7 11.0 4.7 51 4.7 SSE 13 15 7 8 1022.0 1021.7 0.0
02/08:00pm 16.1 12.0 4.5 46 5.5 SSE 15 19 8 10 1021.6 1021.3 0.0
02/07:30pm 16.7 12.9 4.1 43 5.9 SSE 13 17 7 9 1021.3 1021.0 0.0
02/07:00pm 16.9 12.5 4.6 44 5.9 SSE 17 19 9 10 1020.9 1020.6 0.0
02/06:30pm 16.0 11.9 4.1 45 5.6 S 15 19 8 10 1020.4 1020.1 0.0
02/06:00pm 16.8 12.6 3.8 42 6.1 SSW 15 17 8 9 1020.1 1019.8 0.0
02/05:30pm 19.6 15.0 3.7 35 7.6 S 17 20 9 11 1019.7 1019.4 0.0
02/05:00pm 21.4 16.4 4.5 33 8.3 SSW 20 32 11 17 1019.3 1019.1 0.0
02/04:30pm 22.3 17.9 4.8 32 8.7 S 17 28 9 15 1019.1 1018.9 0.0
02/04:00pm 22.7 17.8 5.2 32 8.8 S 20 26 11 14 1019.1 1018.9 0.0
02/03:30pm 23.2 18.5 5.1 31 9.1 SSW 19 26 10 14 1019.0 1018.8 0.0
02/03:00pm 23.4 18.8 5.8 32 9.0 SSW 19 28 10 15 1019.2 1019.0 0.0
02/02:30pm 23.6 19.1 6.0 32 9.0 SW 19 30 10 16 1019.4 1019.2 0.0
02/02:00pm 23.4 19.3 6.2 33 8.8 SSW 17 28 9 15 1019.7 1019.4 0.0
02/01:30pm 24.0 20.8 6.7 33 9.0 WSW 13 20 7 11 1020.0 1019.7 0.0
02/01:00pm 23.6 20.1 7.3 35 8.6 SSE 15 22 8 12 1020.4 1020.1 0.0
02/12:30pm 22.5 19.6 6.7 36 8.2 S 11 19 6 10 1021.1 1020.8 0.0
02/12:00pm 21.7 18.4 6.4 37 7.8 SSE 13 26 7 14 1022.0 1021.7 0.0
02/11:30am 21.1 19.1 7.3 41 7.2 ESE 7 17 4 9 1022.7 1022.5 0.0
02/11:00am 20.1 17.9 7.8 45 6.4 SSW 9 15 5 8 1023.3 1023.1 0.0
02/10:30am 19.6 17.1 8.0 47 6.0 SSW 11 17 6 9 1023.9 1023.7 0.0
02/10:00am 18.9 16.5 8.6 51 5.4 SSE 11 17 6 9 1024.1 1023.9 0.0
02/09:30am 17.6 14.4 8.5 55 4.7 SSE 15 20 8 11 1024.5 1024.3 0.0
02/09:00am 16.2 13.4 8.7 61 3.9 S 13 19 7 10 1024.6 1024.4 0.0
02/08:30am 15.3 13.4 9.2 67 3.2 S 9 13 5 7 1024.3 1024.1 0.0
02/08:00am 13.3 11.4 9.2 76 2.1 SSW 9 13 5 7 1024.1 1023.9 0.0
02/07:30am 12.0 9.8 9.2 83 1.4 SSW 11 13 6 7 1023.6 1023.4 0.0
02/07:00am 10.1 7.2 8.0 87 1.0 SSW 13 15 7 8 1023.3 1023.1 0.0
02/06:30am 10.3 7.7 7.7 84 1.3 SSW 11 13 6 7 1023.0 1022.8 0.0
02/06:00am 10.8 7.8 7.9 82 1.4 SSW 13 17 7 9 1022.8 1022.6 0.0
02/05:30am 11.2 8.4 8.4 83 1.4 SSW 13 17 7 9 1022.7 1022.5 0.0
02/05:00am 11.0 8.4 7.9 81 1.5 SW 11 13 6 7 1022.4 1022.2 0.0
02/04:30am 12.4 10.6 7.9 74 2.2 SSW 7 11 4 6 1022.3 1022.0 0.0
02/04:00am 13.9 11.2 8.9 72 2.5 S 13 20 7 11 1022.5 1022.3 0.0
02/03:30am 14.3 11.2 8.9 70 2.8 S 15 19 8 10 1022.6 1022.4 0.0
02/03:00am 14.9 11.5 9.3 69 2.9 S 17 22 9 12 1022.6 1022.4 0.0
02/02:30am 15.1 11.2 9.5 69 2.9 S 20 28 11 15 1022.4 1022.2 0.0
02/02:00am 15.5 11.3 9.6 68 3.1 S 22 32 12 17 1022.3 1022.0 0.0
02/01:30am 15.7 11.9 9.8 68 3.1 S 20 26 11 14 1022.7 1022.5 0.0
02/01:00am 15.7 12.0 10.0 69 3.0 S 20 28 11 15 1022.9 1022.7 0.0
02/12:30am 15.5 12.3 9.8 69 3.0 S 17 22 9 12 1022.8 1022.6 0.0
02/12:00am 16.0 12.7 9.4 65 3.4 S 17 20 9 11 1022.7 1022.5 0.0
 
Date/Time
EST
Temp
°C
App
Temp
°C
Dew
Point
Rel
Hum
%
Delta-T
°C
Wind Press
QNH
hPa
Press
MSL
hPa
Rain
since 9 am
mm
Dir
 
Spd
km/h
Gust
km/h
Spd
kts
Gust
kts
01/11:30pm 16.8 13.2 10.0 64 3.6 SSE 19 26 10 14 1022.6 1022.4 0.0
01/11:00pm 16.9 13.1 9.8 63 3.7 S 20 30 11 16 1022.8 1022.6 0.0
01/10:30pm 17.5 13.7 9.9 61 4.0 SSE 20 26 11 14 1023.1 1022.9 0.0
01/10:00pm 17.7 13.9 9.8 60 4.2 SSE 20 26 11 14 1023.1 1022.9 0.0

Other Formats:

Comma delimited format used in spreadsheet applications
http://www.bom.gov.au/fwo/IDQ60801/IDQ60801.94398.axf

JavaScript Object Notation format (JSON) in row-major order
http://www.bom.gov.au/fwo/IDQ60801/IDQ60801.94398.json